sensor_id;sensor_type;location;lat;lon;timestamp;temperature;humidity
8824;DHT22;4448;50.904;4.694;2023-06-14T00:01:24;22.50;99.90
8824;DHT22;4448;50.904;4.694;2023-06-14T00:03:50;22.50;99.90
8824;DHT22;4448;50.904;4.694;2023-06-14T00:06:16;22.50;99.90
8824;DHT22;4448;50.904;4.694;2023-06-14T00:08:42;22.40;99.90
8824;DHT22;4448;50.904;4.694;2023-06-14T00:11:08;22.40;99.90
8824;DHT22;4448;50.904;4.694;2023-06-14T00:13:34;22.40;99.90
8824;DHT22;4448;50.904;4.694;2023-06-14T00:16:00;22.40;99.90
8824;DHT22;4448;50.904;4.694;2023-06-14T00:18:25;22.30;99.90
8824;DHT22;4448;50.904;4.694;2023-06-14T00:20:55;22.30;99.90
8824;DHT22;4448;50.904;4.694;2023-06-14T00:23:21;22.30;99.90
8824;DHT22;4448;50.904;4.694;2023-06-14T00:25:47;22.30;99.90
8824;DHT22;4448;50.904;4.694;2023-06-14T00:28:12;22.30;99.90
8824;DHT22;4448;50.904;4.694;2023-06-14T00:30:38;22.20;99.90
8824;DHT22;4448;50.904;4.694;2023-06-14T00:33:04;22.20;99.90
8824;DHT22;4448;50.904;4.694;2023-06-14T00:35:29;22.20;99.90
8824;DHT22;4448;50.904;4.694;2023-06-14T00:37:55;22.10;99.90
8824;DHT22;4448;50.904;4.694;2023-06-14T00:40:21;22.10;99.90
8824;DHT22;4448;50.904;4.694;2023-06-14T00:42:47;22.10;99.90
8824;DHT22;4448;50.904;4.694;2023-06-14T00:45:13;22.10;99.90
8824;DHT22;4448;50.904;4.694;2023-06-14T00:47:38;22.10;99.90
8824;DHT22;4448;50.904;4.694;2023-06-14T00:50:09;22.00;99.90
8824;DHT22;4448;50.904;4.694;2023-06-14T00:52:35;22.00;99.90
8824;DHT22;4448;50.904;4.694;2023-06-14T00:55:01;22.00;99.90
8824;DHT22;4448;50.904;4.694;2023-06-14T00:57:27;22.00;99.90
8824;DHT22;4448;50.904;4.694;2023-06-14T00:59:55;21.90;99.90
8824;DHT22;4448;50.904;4.694;2023-06-14T01:02:21;21.90;99.90
8824;DHT22;4448;50.904;4.694;2023-06-14T01:04:48;21.90;99.90
8824;DHT22;4448;50.904;4.694;2023-06-14T01:15:12;21.80;99.90
8824;DHT22;4448;50.904;4.694;2023-06-14T01:17:39;21.80;99.90
8824;DHT22;4448;50.904;4.694;2023-06-14T01:20:11;21.70;99.90
8824;DHT22;4448;50.904;4.694;2023-06-14T01:23:06;21.70;99.90
8824;DHT22;4448;50.904;4.694;2023-06-14T01:25:32;21.70;99.90
8824;DHT22;4448;50.904;4.694;2023-06-14T01:27:59;21.70;99.90
8824;DHT22;4448;50.904;4.694;2023-06-14T01:30:26;21.60;99.90
8824;DHT22;4448;50.904;4.694;2023-06-14T01:32:53;21.60;99.90
8824;DHT22;4448;50.904;4.694;2023-06-14T01:35:20;21.60;99.90
8824;DHT22;4448;50.904;4.694;2023-06-14T01:37:48;21.60;99.90
8824;DHT22;4448;50.904;4.694;2023-06-14T01:40:15;21.60;99.90
8824;DHT22;4448;50.904;4.694;2023-06-14T01:42:41;21.60;99.90
8824;DHT22;4448;50.904;4.694;2023-06-14T01:45:09;21.60;99.90
8824;DHT22;4448;50.904;4.694;2023-06-14T01:47:35;21.50;99.90
8824;DHT22;4448;50.904;4.694;2023-06-14T01:50:02;21.50;99.90
8824;DHT22;4448;50.904;4.694;2023-06-14T01:52:28;21.40;99.90
8824;DHT22;4448;50.904;4.694;2023-06-14T01:54:54;21.50;99.90
8824;DHT22;4448;50.904;4.694;2023-06-14T01:57:19;21.50;99.90
8824;DHT22;4448;50.904;4.694;2023-06-14T01:59:46;21.40;99.90
8824;DHT22;4448;50.904;4.694;2023-06-14T02:02:14;21.40;99.90
8824;DHT22;4448;50.904;4.694;2023-06-14T02:04:40;21.40;99.90
8824;DHT22;4448;50.904;4.694;2023-06-14T02:07:06;21.40;99.90
8824;DHT22;4448;50.904;4.694;2023-06-14T02:09:32;21.30;99.90
8824;DHT22;4448;50.904;4.694;2023-06-14T02:11:57;21.30;99.90
8824;DHT22;4448;50.904;4.694;2023-06-14T02:14:23;21.30;99.90
8824;DHT22;4448;50.904;4.694;2023-06-14T02:16:49;21.30;99.90
8824;DHT22;4448;50.904;4.694;2023-06-14T02:19:16;21.30;99.90
8824;DHT22;4448;50.904;4.694;2023-06-14T02:21:42;21.30;99.90
8824;DHT22;4448;50.904;4.694;2023-06-14T02:24:08;21.20;99.90
8824;DHT22;4448;50.904;4.694;2023-06-14T02:26:34;21.20;99.90
8824;DHT22;4448;50.904;4.694;2023-06-14T02:28:59;21.20;99.90
8824;DHT22;4448;50.904;4.694;2023-06-14T02:31:25;21.20;99.90
8824;DHT22;4448;50.904;4.694;2023-06-14T02:33:51;21.10;99.90
8824;DHT22;4448;50.904;4.694;2023-06-14T02:36:17;21.10;99.90
8824;DHT22;4448;50.904;4.694;2023-06-14T02:38:42;21.10;99.90
8824;DHT22;4448;50.904;4.694;2023-06-14T02:41:08;21.10;99.90
8824;DHT22;4448;50.904;4.694;2023-06-14T02:43:33;21.10;99.90
8824;DHT22;4448;50.904;4.694;2023-06-14T02:45:59;21.10;99.90
8824;DHT22;4448;50.904;4.694;2023-06-14T02:48:25;21.00;99.90
8824;DHT22;4448;50.904;4.694;2023-06-14T02:50:50;21.00;99.90
8824;DHT22;4448;50.904;4.694;2023-06-14T02:53:16;21.00;99.90
8824;DHT22;4448;50.904;4.694;2023-06-14T02:55:42;20.90;99.90
8824;DHT22;4448;50.904;4.694;2023-06-14T02:58:08;21.00;99.90
8824;DHT22;4448;50.904;4.694;2023-06-14T03:00:34;21.00;99.90
8824;DHT22;4448;50.904;4.694;2023-06-14T03:03:00;20.90;99.90
8824;DHT22;4448;50.904;4.694;2023-06-14T03:05:27;20.90;99.90
8824;DHT22;4448;50.904;4.694;2023-06-14T03:07:53;20.90;99.90
8824;DHT22;4448;50.904;4.694;2023-06-14T03:10:20;20.90;99.90
8824;DHT22;4448;50.904;4.694;2023-06-14T03:12:47;20.80;99.90
8824;DHT22;4448;50.904;4.694;2023-06-14T03:15:13;20.80;99.90
8824;DHT22;4448;50.904;4.694;2023-06-14T03:17:39;20.80;99.90
8824;DHT22;4448;50.904;4.694;2023-06-14T03:20:05;20.70;99.90
8824;DHT22;4448;50.904;4.694;2023-06-14T03:22:31;20.70;99.90
8824;DHT22;4448;50.904;4.694;2023-06-14T03:24:59;20.70;99.90
8824;DHT22;4448;50.904;4.694;2023-06-14T03:27:25;20.70;99.90
8824;DHT22;4448;50.904;4.694;2023-06-14T03:29:54;20.70;99.90
8824;DHT22;4448;50.904;4.694;2023-06-14T03:32:19;20.60;99.90
8824;DHT22;4448;50.904;4.694;2023-06-14T03:34:45;20.60;99.90
8824;DHT22;4448;50.904;4.694;2023-06-14T03:37:11;20.60;99.90
8824;DHT22;4448;50.904;4.694;2023-06-14T03:39:37;20.60;99.90
8824;DHT22;4448;50.904;4.694;2023-06-14T03:42:03;20.60;99.90
8824;DHT22;4448;50.904;4.694;2023-06-14T03:44:29;20.60;99.90
8824;DHT22;4448;50.904;4.694;2023-06-14T03:46:55;20.60;99.90
8824;DHT22;4448;50.904;4.694;2023-06-14T03:49:21;20.50;99.90
8824;DHT22;4448;50.904;4.694;2023-06-14T03:51:46;20.50;99.90
8824;DHT22;4448;50.904;4.694;2023-06-14T03:54:16;20.50;99.90
8824;DHT22;4448;50.904;4.694;2023-06-14T03:56:42;20.50;99.90
8824;DHT22;4448;50.904;4.694;2023-06-14T03:59:07;20.50;99.90
8824;DHT22;4448;50.904;4.694;2023-06-14T04:01:33;20.50;99.90
8824;DHT22;4448;50.904;4.694;2023-06-14T04:03:59;20.50;99.90
8824;DHT22;4448;50.904;4.694;2023-06-14T04:06:24;20.50;99.90
8824;DHT22;4448;50.904;4.694;2023-06-14T04:08:57;20.40;99.90
8824;DHT22;4448;50.904;4.694;2023-06-14T04:11:23;20.40;99.90
8824;DHT22;4448;50.904;4.694;2023-06-14T04:13:50;20.40;99.90
8824;DHT22;4448;50.904;4.694;2023-06-14T04:16:19;20.40;99.90
8824;DHT22;4448;50.904;4.694;2023-06-14T04:18:45;20.40;99.90
8824;DHT22;4448;50.904;4.694;2023-06-14T04:21:12;20.40;99.90
8824;DHT22;4448;50.904;4.694;2023-06-14T04:23:37;20.40;99.90
8824;DHT22;4448;50.904;4.694;2023-06-14T04:26:03;20.40;99.90
8824;DHT22;4448;50.904;4.694;2023-06-14T04:28:30;20.40;99.90
8824;DHT22;4448;50.904;4.694;2023-06-14T04:30:55;20.40;99.90
8824;DHT22;4448;50.904;4.694;2023-06-14T04:33:21;20.40;99.90
8824;DHT22;4448;50.904;4.694;2023-06-14T04:35:50;20.40;99.90
8824;DHT22;4448;50.904;4.694;2023-06-14T04:38:19;20.40;99.90
8824;DHT22;4448;50.904;4.694;2023-06-14T04:40:50;20.40;99.90
8824;DHT22;4448;50.904;4.694;2023-06-14T04:43:18;20.40;99.90
8824;DHT22;4448;50.904;4.694;2023-06-14T04:45:50;20.40;99.90
8824;DHT22;4448;50.904;4.694;2023-06-14T04:48:17;20.40;99.90
8824;DHT22;4448;50.904;4.694;2023-06-14T04:50:46;20.40;99.90
8824;DHT22;4448;50.904;4.694;2023-06-14T04:53:11;20.40;99.90
8824;DHT22;4448;50.904;4.694;2023-06-14T04:55:38;20.40;99.90
8824;DHT22;4448;50.904;4.694;2023-06-14T04:58:03;20.50;99.90
8824;DHT22;4448;50.904;4.694;2023-06-14T05:00:30;20.40;99.90
8824;DHT22;4448;50.904;4.694;2023-06-14T05:02:56;20.40;99.90
8824;DHT22;4448;50.904;4.694;2023-06-14T05:05:22;20.40;99.90
8824;DHT22;4448;50.904;4.694;2023-06-14T05:07:48;20.50;99.90
8824;DHT22;4448;50.904;4.694;2023-06-14T05:10:15;20.50;99.90
8824;DHT22;4448;50.904;4.694;2023-06-14T05:12:40;20.50;99.90
8824;DHT22;4448;50.904;4.694;2023-06-14T05:15:09;20.50;99.90
8824;DHT22;4448;50.904;4.694;2023-06-14T05:17:35;20.50;99.90
8824;DHT22;4448;50.904;4.694;2023-06-14T05:20:01;20.50;99.90
8824;DHT22;4448;50.904;4.694;2023-06-14T05:22:27;20.50;99.90
8824;DHT22;4448;50.904;4.694;2023-06-14T05:24:53;20.50;99.90
8824;DHT22;4448;50.904;4.694;2023-06-14T05:27:18;20.50;99.90
8824;DHT22;4448;50.904;4.694;2023-06-14T05:29:44;20.60;99.90
8824;DHT22;4448;50.904;4.694;2023-06-14T05:32:10;20.60;99.90
8824;DHT22;4448;50.904;4.694;2023-06-14T05:34:35;20.60;99.90
8824;DHT22;4448;50.904;4.694;2023-06-14T05:37:01;20.60;99.90
8824;DHT22;4448;50.904;4.694;2023-06-14T05:39:26;20.60;99.90
8824;DHT22;4448;50.904;4.694;2023-06-14T05:41:52;20.60;99.90
8824;DHT22;4448;50.904;4.694;2023-06-14T05:44:18;20.60;99.90
8824;DHT22;4448;50.904;4.694;2023-06-14T05:46:43;20.70;99.90
8824;DHT22;4448;50.904;4.694;2023-06-14T05:49:09;20.70;99.90
8824;DHT22;4448;50.904;4.694;2023-06-14T05:51:34;20.70;99.90
8824;DHT22;4448;50.904;4.694;2023-06-14T05:54:00;20.70;99.90
8824;DHT22;4448;50.904;4.694;2023-06-14T05:56:26;20.70;99.90
8824;DHT22;4448;50.904;4.694;2023-06-14T05:58:52;20.80;99.90
8824;DHT22;4448;50.904;4.694;2023-06-14T06:01:17;20.80;99.90
8824;DHT22;4448;50.904;4.694;2023-06-14T06:03:43;20.80;99.90
8824;DHT22;4448;50.904;4.694;2023-06-14T06:06:12;20.80;99.90
8824;DHT22;4448;50.904;4.694;2023-06-14T06:08:38;20.80;99.90
8824;DHT22;4448;50.904;4.694;2023-06-14T06:11:03;20.90;99.90
8824;DHT22;4448;50.904;4.694;2023-06-14T06:13:29;20.90;99.90
8824;DHT22;4448;50.904;4.694;2023-06-14T06:15:55;20.90;99.90
8824;DHT22;4448;50.904;4.694;2023-06-14T06:18:21;21.00;99.90
8824;DHT22;4448;50.904;4.694;2023-06-14T06:20:47;21.00;99.90
8824;DHT22;4448;50.904;4.694;2023-06-14T06:23:13;21.00;99.90
8824;DHT22;4448;50.904;4.694;2023-06-14T06:25:39;21.00;99.90
8824;DHT22;4448;50.904;4.694;2023-06-14T06:28:05;21.10;99.90
8824;DHT22;4448;50.904;4.694;2023-06-14T06:30:31;21.10;99.90
8824;DHT22;4448;50.904;4.694;2023-06-14T06:32:57;21.10;99.90
8824;DHT22;4448;50.904;4.694;2023-06-14T06:35:23;21.10;99.90
8824;DHT22;4448;50.904;4.694;2023-06-14T06:37:48;21.20;99.90
8824;DHT22;4448;50.904;4.694;2023-06-14T06:40:14;21.20;99.90
8824;DHT22;4448;50.904;4.694;2023-06-14T06:42:39;21.20;99.90
8824;DHT22;4448;50.904;4.694;2023-06-14T06:45:05;21.20;99.90
8824;DHT22;4448;50.904;4.694;2023-06-14T06:47:31;21.30;99.90
8824;DHT22;4448;50.904;4.694;2023-06-14T06:49:57;21.30;99.90
8824;DHT22;4448;50.904;4.694;2023-06-14T06:52:22;21.30;99.90
8824;DHT22;4448;50.904;4.694;2023-06-14T06:54:48;21.40;99.90
8824;DHT22;4448;50.904;4.694;2023-06-14T06:57:14;21.40;99.90
8824;DHT22;4448;50.904;4.694;2023-06-14T06:59:40;21.40;99.90
8824;DHT22;4448;50.904;4.694;2023-06-14T07:02:06;21.50;99.90
8824;DHT22;4448;50.904;4.694;2023-06-14T07:04:32;21.50;99.90
8824;DHT22;4448;50.904;4.694;2023-06-14T07:06:57;21.50;99.90
8824;DHT22;4448;50.904;4.694;2023-06-14T07:09:23;21.60;99.90
8824;DHT22;4448;50.904;4.694;2023-06-14T07:11:49;21.60;99.90
8824;DHT22;4448;50.904;4.694;2023-06-14T07:14:15;21.60;99.90
8824;DHT22;4448;50.904;4.694;2023-06-14T07:16:41;21.70;99.90
8824;DHT22;4448;50.904;4.694;2023-06-14T07:19:08;21.70;99.90
8824;DHT22;4448;50.904;4.694;2023-06-14T07:21:34;21.80;99.90
8824;DHT22;4448;50.904;4.694;2023-06-14T07:24:00;21.80;99.90
8824;DHT22;4448;50.904;4.694;2023-06-14T07:26:26;21.90;99.90
8824;DHT22;4448;50.904;4.694;2023-06-14T07:28:52;21.90;99.90
8824;DHT22;4448;50.904;4.694;2023-06-14T07:31:18;21.90;99.90
8824;DHT22;4448;50.904;4.694;2023-06-14T07:33:44;21.90;99.90
8824;DHT22;4448;50.904;4.694;2023-06-14T07:36:10;22.00;99.90
8824;DHT22;4448;50.904;4.694;2023-06-14T07:38:36;22.00;99.90
8824;DHT22;4448;50.904;4.694;2023-06-14T07:41:02;22.00;99.90
8824;DHT22;4448;50.904;4.694;2023-06-14T07:43:28;22.10;99.90
8824;DHT22;4448;50.904;4.694;2023-06-14T07:45:54;22.10;99.90
8824;DHT22;4448;50.904;4.694;2023-06-14T07:48:20;22.10;99.90
8824;DHT22;4448;50.904;4.694;2023-06-14T07:50:46;22.20;99.90
8824;DHT22;4448;50.904;4.694;2023-06-14T07:53:12;22.20;99.90
8824;DHT22;4448;50.904;4.694;2023-06-14T07:55:37;22.20;99.90
8824;DHT22;4448;50.904;4.694;2023-06-14T07:58:04;22.30;99.90
8824;DHT22;4448;50.904;4.694;2023-06-14T08:00:30;22.30;99.90
8824;DHT22;4448;50.904;4.694;2023-06-14T08:02:56;22.30;99.90
8824;DHT22;4448;50.904;4.694;2023-06-14T08:05:24;22.40;99.90
8824;DHT22;4448;50.904;4.694;2023-06-14T08:07:51;22.40;99.90
8824;DHT22;4448;50.904;4.694;2023-06-14T08:10:17;22.50;99.90
8824;DHT22;4448;50.904;4.694;2023-06-14T08:12:42;22.50;99.90
8824;DHT22;4448;50.904;4.694;2023-06-14T08:15:08;22.50;99.90
8824;DHT22;4448;50.904;4.694;2023-06-14T08:17:34;22.50;99.90
8824;DHT22;4448;50.904;4.694;2023-06-14T08:20:00;22.60;99.90
8824;DHT22;4448;50.904;4.694;2023-06-14T08:22:26;22.60;99.90
8824;DHT22;4448;50.904;4.694;2023-06-14T08:24:53;22.60;99.90
8824;DHT22;4448;50.904;4.694;2023-06-14T08:27:20;22.70;99.90
8824;DHT22;4448;50.904;4.694;2023-06-14T08:29:46;22.70;99.90
8824;DHT22;4448;50.904;4.694;2023-06-14T08:32:12;22.80;99.90
8824;DHT22;4448;50.904;4.694;2023-06-14T08:34:37;22.90;99.90
8824;DHT22;4448;50.904;4.694;2023-06-14T08:37:03;22.90;99.90
8824;DHT22;4448;50.904;4.694;2023-06-14T08:39:30;23.00;99.90
8824;DHT22;4448;50.904;4.694;2023-06-14T08:41:56;23.00;99.90
8824;DHT22;4448;50.904;4.694;2023-06-14T08:44:22;23.10;99.90
8824;DHT22;4448;50.904;4.694;2023-06-14T08:46:49;23.10;99.90
8824;DHT22;4448;50.904;4.694;2023-06-14T08:49:17;23.20;99.90
8824;DHT22;4448;50.904;4.694;2023-06-14T08:51:43;23.30;99.90
8824;DHT22;4448;50.904;4.694;2023-06-14T08:54:11;23.30;99.90
8824;DHT22;4448;50.904;4.694;2023-06-14T08:56:38;23.30;99.90
8824;DHT22;4448;50.904;4.694;2023-06-14T08:59:04;23.40;99.90
8824;DHT22;4448;50.904;4.694;2023-06-14T09:01:36;23.40;99.90
8824;DHT22;4448;50.904;4.694;2023-06-14T09:04:02;23.50;99.90
8824;DHT22;4448;50.904;4.694;2023-06-14T09:06:28;23.50;99.90
8824;DHT22;4448;50.904;4.694;2023-06-14T09:08:55;23.60;99.90
8824;DHT22;4448;50.904;4.694;2023-06-14T09:11:23;23.70;99.90
8824;DHT22;4448;50.904;4.694;2023-06-14T09:13:49;23.70;99.90
8824;DHT22;4448;50.904;4.694;2023-06-14T09:16:16;23.80;99.90
8824;DHT22;4448;50.904;4.694;2023-06-14T09:18:44;23.80;99.90
8824;DHT22;4448;50.904;4.694;2023-06-14T09:21:14;24.00;99.90
8824;DHT22;4448;50.904;4.694;2023-06-14T09:23:42;24.00;99.90
8824;DHT22;4448;50.904;4.694;2023-06-14T09:26:12;24.10;99.90
8824;DHT22;4448;50.904;4.694;2023-06-14T09:28:42;24.20;99.90
8824;DHT22;4448;50.904;4.694;2023-06-14T09:31:11;24.30;99.90
8824;DHT22;4448;50.904;4.694;2023-06-14T09:33:37;24.30;99.90
8824;DHT22;4448;50.904;4.694;2023-06-14T09:36:04;24.40;99.90
8824;DHT22;4448;50.904;4.694;2023-06-14T09:38:30;24.50;99.90
8824;DHT22;4448;50.904;4.694;2023-06-14T09:40:58;24.60;99.90
8824;DHT22;4448;50.904;4.694;2023-06-14T09:43:24;24.70;99.90
8824;DHT22;4448;50.904;4.694;2023-06-14T09:45:53;24.80;99.90
8824;DHT22;4448;50.904;4.694;2023-06-14T09:48:19;24.90;99.90
8824;DHT22;4448;50.904;4.694;2023-06-14T09:50:46;25.00;99.90
8824;DHT22;4448;50.904;4.694;2023-06-14T09:53:13;25.10;99.90
8824;DHT22;4448;50.904;4.694;2023-06-14T09:55:41;25.20;99.90
8824;DHT22;4448;50.904;4.694;2023-06-14T09:58:08;25.40;99.90
8824;DHT22;4448;50.904;4.694;2023-06-14T10:00:35;25.50;99.90
8824;DHT22;4448;50.904;4.694;2023-06-14T10:03:15;25.60;99.90
8824;DHT22;4448;50.904;4.694;2023-06-14T10:05:46;25.70;99.90
8824;DHT22;4448;50.904;4.694;2023-06-14T10:08:15;25.70;99.90
8824;DHT22;4448;50.904;4.694;2023-06-14T10:10:42;25.90;99.90
8824;DHT22;4448;50.904;4.694;2023-06-14T10:13:09;26.00;99.90
8824;DHT22;4448;50.904;4.694;2023-06-14T10:23:37;26.40;99.90
8824;DHT22;4448;50.904;4.694;2023-06-14T10:26:06;26.50;99.90
8824;DHT22;4448;50.904;4.694;2023-06-14T10:31:12;26.70;99.90
8824;DHT22;4448;50.904;4.694;2023-06-14T10:39:15;26.90;99.90
8824;DHT22;4448;50.904;4.694;2023-06-14T10:41:41;27.00;99.90
8824;DHT22;4448;50.904;4.694;2023-06-14T10:44:30;27.10;99.90
8824;DHT22;4448;50.904;4.694;2023-06-14T10:46:58;27.20;99.90
8824;DHT22;4448;50.904;4.694;2023-06-14T10:49:45;27.30;99.90
8824;DHT22;4448;50.904;4.694;2023-06-14T10:52:15;27.50;99.90
8824;DHT22;4448;50.904;4.694;2023-06-14T10:57:25;27.70;99.90
8824;DHT22;4448;50.904;4.694;2023-06-14T10:59:50;27.80;99.90
8824;DHT22;4448;50.904;4.694;2023-06-14T11:04:54;28.10;99.90
8824;DHT22;4448;50.904;4.694;2023-06-14T11:10:39;28.30;99.90
8824;DHT22;4448;50.904;4.694;2023-06-14T11:13:06;28.40;99.90
8824;DHT22;4448;50.904;4.694;2023-06-14T11:15:33;28.40;99.90
8824;DHT22;4448;50.904;4.694;2023-06-14T11:18:06;28.60;99.90
8824;DHT22;4448;50.904;4.694;2023-06-14T11:20:35;28.60;99.90
8824;DHT22;4448;50.904;4.694;2023-06-14T11:23:01;28.70;99.90
8824;DHT22;4448;50.904;4.694;2023-06-14T11:25:27;28.80;99.90
8824;DHT22;4448;50.904;4.694;2023-06-14T11:27:56;28.90;99.90
8824;DHT22;4448;50.904;4.694;2023-06-14T11:30:23;29.00;99.90
8824;DHT22;4448;50.904;4.694;2023-06-14T11:32:51;29.10;99.90
8824;DHT22;4448;50.904;4.694;2023-06-14T11:35:19;29.10;99.90
8824;DHT22;4448;50.904;4.694;2023-06-14T11:37:47;29.20;99.90
8824;DHT22;4448;50.904;4.694;2023-06-14T11:40:14;29.30;99.90
8824;DHT22;4448;50.904;4.694;2023-06-14T11:42:41;29.50;99.90
8824;DHT22;4448;50.904;4.694;2023-06-14T11:45:11;29.60;99.90
8824;DHT22;4448;50.904;4.694;2023-06-14T11:47:38;29.70;99.90
8824;DHT22;4448;50.904;4.694;2023-06-14T11:50:06;29.80;99.90
8824;DHT22;4448;50.904;4.694;2023-06-14T11:52:32;29.90;99.90
8824;DHT22;4448;50.904;4.694;2023-06-14T11:54:58;30.00;99.90
8824;DHT22;4448;50.904;4.694;2023-06-14T11:57:24;30.10;99.90
8824;DHT22;4448;50.904;4.694;2023-06-14T11:59:50;30.10;99.90
8824;DHT22;4448;50.904;4.694;2023-06-14T12:02:18;30.20;99.90
8824;DHT22;4448;50.904;4.694;2023-06-14T12:04:46;30.30;99.90
8824;DHT22;4448;50.904;4.694;2023-06-14T12:07:14;30.40;99.90
8824;DHT22;4448;50.904;4.694;2023-06-14T12:12:21;30.70;99.90
8824;DHT22;4448;50.904;4.694;2023-06-14T12:14:47;30.70;99.90
8824;DHT22;4448;50.904;4.694;2023-06-14T12:17:13;30.90;99.90
8824;DHT22;4448;50.904;4.694;2023-06-14T12:19:43;30.90;99.90
8824;DHT22;4448;50.904;4.694;2023-06-14T12:22:10;31.00;99.90
8824;DHT22;4448;50.904;4.694;2023-06-14T12:24:35;31.10;99.90
8824;DHT22;4448;50.904;4.694;2023-06-14T12:27:01;31.10;99.90
8824;DHT22;4448;50.904;4.694;2023-06-14T12:29:31;31.20;99.90
8824;DHT22;4448;50.904;4.694;2023-06-14T12:31:57;31.20;99.90
8824;DHT22;4448;50.904;4.694;2023-06-14T12:34:23;31.20;99.90
8824;DHT22;4448;50.904;4.694;2023-06-14T12:36:53;31.20;99.90
8824;DHT22;4448;50.904;4.694;2023-06-14T12:39:20;31.10;99.90
8824;DHT22;4448;50.904;4.694;2023-06-14T12:41:46;31.00;99.90
8824;DHT22;4448;50.904;4.694;2023-06-14T12:44:12;31.00;99.90
8824;DHT22;4448;50.904;4.694;2023-06-14T12:46:39;31.00;99.90
8824;DHT22;4448;50.904;4.694;2023-06-14T12:49:07;31.00;99.90
8824;DHT22;4448;50.904;4.694;2023-06-14T12:51:32;31.00;99.90
8824;DHT22;4448;50.904;4.694;2023-06-14T12:53:58;31.00;99.90
8824;DHT22;4448;50.904;4.694;2023-06-14T12:56:24;31.10;99.90
8824;DHT22;4448;50.904;4.694;2023-06-14T12:58:49;31.10;99.90
8824;DHT22;4448;50.904;4.694;2023-06-14T13:01:15;31.10;99.90
8824;DHT22;4448;50.904;4.694;2023-06-14T13:03:41;31.00;99.50
8824;DHT22;4448;50.904;4.694;2023-06-14T13:06:07;31.00;99.70
8824;DHT22;4448;50.904;4.694;2023-06-14T13:08:32;30.90;99.90
8824;DHT22;4448;50.904;4.694;2023-06-14T13:10:58;30.90;99.40
8824;DHT22;4448;50.904;4.694;2023-06-14T13:13:24;30.80;99.90
8824;DHT22;4448;50.904;4.694;2023-06-14T13:15:50;30.80;99.90
8824;DHT22;4448;50.904;4.694;2023-06-14T13:18:16;30.80;99.90
8824;DHT22;4448;50.904;4.694;2023-06-14T13:20:42;30.80;99.90
8824;DHT22;4448;50.904;4.694;2023-06-14T13:23:09;30.80;99.90
8824;DHT22;4448;50.904;4.694;2023-06-14T13:25:36;30.80;99.90
8824;DHT22;4448;50.904;4.694;2023-06-14T13:28:03;30.70;99.40
8824;DHT22;4448;50.904;4.694;2023-06-14T13:30:29;30.70;99.20
8824;DHT22;4448;50.904;4.694;2023-06-14T13:32:55;30.70;99.50
8824;DHT22;4448;50.904;4.694;2023-06-14T13:35:21;30.60;98.30
8824;DHT22;4448;50.904;4.694;2023-06-14T13:37:47;30.50;98.20
8824;DHT22;4448;50.904;4.694;2023-06-14T13:40:13;30.50;97.90
8824;DHT22;4448;50.904;4.694;2023-06-14T13:42:39;30.50;98.70
8824;DHT22;4448;50.904;4.694;2023-06-14T13:45:06;30.50;99.30
8824;DHT22;4448;50.904;4.694;2023-06-14T13:47:32;30.50;98.70
8824;DHT22;4448;50.904;4.694;2023-06-14T13:49:58;30.40;98.20
8824;DHT22;4448;50.904;4.694;2023-06-14T13:52:24;30.30;98.30
8824;DHT22;4448;50.904;4.694;2023-06-14T13:54:50;30.30;98.90
8824;DHT22;4448;50.904;4.694;2023-06-14T13:57:16;30.20;98.30
8824;DHT22;4448;50.904;4.694;2023-06-14T13:59:43;30.20;98.90
8824;DHT22;4448;50.904;4.694;2023-06-14T14:02:12;30.20;98.70
8824;DHT22;4448;50.904;4.694;2023-06-14T14:04:39;30.10;98.50
8824;DHT22;4448;50.904;4.694;2023-06-14T14:07:05;30.10;98.80
8824;DHT22;4448;50.904;4.694;2023-06-14T14:09:35;30.10;98.30
8824;DHT22;4448;50.904;4.694;2023-06-14T14:12:01;30.00;98.30
8824;DHT22;4448;50.904;4.694;2023-06-14T14:14:31;29.90;97.90
8824;DHT22;4448;50.904;4.694;2023-06-14T14:16:57;29.90;97.70
8824;DHT22;4448;50.904;4.694;2023-06-14T14:19:23;29.80;98.50
8824;DHT22;4448;50.904;4.694;2023-06-14T14:21:49;29.70;98.20
8824;DHT22;4448;50.904;4.694;2023-06-14T14:24:15;29.60;97.90
8824;DHT22;4448;50.904;4.694;2023-06-14T14:26:41;29.60;97.90
8824;DHT22;4448;50.904;4.694;2023-06-14T14:29:07;29.50;98.40
8824;DHT22;4448;50.904;4.694;2023-06-14T14:31:34;29.40;97.80
8824;DHT22;4448;50.904;4.694;2023-06-14T14:33:59;29.30;97.90
8824;DHT22;4448;50.904;4.694;2023-06-14T14:36:25;29.30;97.90
8824;DHT22;4448;50.904;4.694;2023-06-14T14:38:51;29.20;98.30
8824;DHT22;4448;50.904;4.694;2023-06-14T14:41:19;29.10;97.80
8824;DHT22;4448;50.904;4.694;2023-06-14T14:43:45;29.00;98.20
8824;DHT22;4448;50.904;4.694;2023-06-14T14:46:11;29.00;98.40
8824;DHT22;4448;50.904;4.694;2023-06-14T14:48:36;28.90;98.70
8824;DHT22;4448;50.904;4.694;2023-06-14T14:51:02;28.90;98.30
8824;DHT22;4448;50.904;4.694;2023-06-14T14:53:28;28.80;98.40
8824;DHT22;4448;50.904;4.694;2023-06-14T14:55:54;28.80;98.60
8824;DHT22;4448;50.904;4.694;2023-06-14T14:58:20;28.80;98.50
8824;DHT22;4448;50.904;4.694;2023-06-14T15:00:46;28.80;98.50
8824;DHT22;4448;50.904;4.694;2023-06-14T15:03:12;28.70;98.20
8824;DHT22;4448;50.904;4.694;2023-06-14T15:05:38;28.70;98.50
8824;DHT22;4448;50.904;4.694;2023-06-14T15:08:04;28.60;98.80
8824;DHT22;4448;50.904;4.694;2023-06-14T15:10:35;28.50;98.40
8824;DHT22;4448;50.904;4.694;2023-06-14T15:13:01;28.50;98.60
8824;DHT22;4448;50.904;4.694;2023-06-14T15:15:27;28.40;98.80
8824;DHT22;4448;50.904;4.694;2023-06-14T15:17:52;28.40;98.90
8824;DHT22;4448;50.904;4.694;2023-06-14T15:20:18;28.40;98.40
8824;DHT22;4448;50.904;4.694;2023-06-14T15:22:44;28.30;98.50
8824;DHT22;4448;50.904;4.694;2023-06-14T15:25:09;28.30;98.60
8824;DHT22;4448;50.904;4.694;2023-06-14T15:27:35;28.20;98.70
8824;DHT22;4448;50.904;4.694;2023-06-14T15:30:01;28.20;98.40
8824;DHT22;4448;50.904;4.694;2023-06-14T15:32:27;28.10;98.70
8824;DHT22;4448;50.904;4.694;2023-06-14T15:34:53;28.10;98.70
8824;DHT22;4448;50.904;4.694;2023-06-14T15:37:19;28.00;98.80
8824;DHT22;4448;50.904;4.694;2023-06-14T15:39:45;27.90;98.50
8824;DHT22;4448;50.904;4.694;2023-06-14T15:42:10;27.90;98.60
8824;DHT22;4448;50.904;4.694;2023-06-14T15:44:37;27.80;98.70
8824;DHT22;4448;50.904;4.694;2023-06-14T15:47:02;27.80;98.70
8824;DHT22;4448;50.904;4.694;2023-06-14T15:49:28;27.80;98.90
8824;DHT22;4448;50.904;4.694;2023-06-14T15:51:55;27.70;99.00
8824;DHT22;4448;50.904;4.694;2023-06-14T15:54:21;27.70;99.00
8824;DHT22;4448;50.904;4.694;2023-06-14T15:56:46;27.70;99.10
8824;DHT22;4448;50.904;4.694;2023-06-14T15:59:12;27.60;99.00
8824;DHT22;4448;50.904;4.694;2023-06-14T16:01:37;27.50;98.60
8824;DHT22;4448;50.904;4.694;2023-06-14T16:04:04;27.50;98.40
8824;DHT22;4448;50.904;4.694;2023-06-14T16:06:30;27.40;98.50
8824;DHT22;4448;50.904;4.694;2023-06-14T16:08:55;27.30;98.80
8824;DHT22;4448;50.904;4.694;2023-06-14T16:11:21;27.30;98.70
8824;DHT22;4448;50.904;4.694;2023-06-14T16:13:47;27.30;98.40
8824;DHT22;4448;50.904;4.694;2023-06-14T16:16:13;27.20;98.30
8824;DHT22;4448;50.904;4.694;2023-06-14T16:18:38;27.20;98.50
8824;DHT22;4448;50.904;4.694;2023-06-14T16:21:04;27.20;98.30
8824;DHT22;4448;50.904;4.694;2023-06-14T16:23:32;27.10;98.40
8824;DHT22;4448;50.904;4.694;2023-06-14T16:25:57;27.10;98.70
8824;DHT22;4448;50.904;4.694;2023-06-14T16:28:23;27.10;98.80
8824;DHT22;4448;50.904;4.694;2023-06-14T16:30:49;27.00;98.60
8824;DHT22;4448;50.904;4.694;2023-06-14T16:33:15;27.00;99.00